sensor_id;sensor_type;location;lat;lon;timestamp;pressure;altitude;pressure_sealevel;temperature
68440;BMP180;55421;51.600;5.718;2023-08-07T00:01:17;12948.80;;;13.70
68440;BMP180;55421;51.600;5.718;2023-08-07T00:03:44;12576.80;;;13.66
68440;BMP180;55421;51.600;5.718;2023-08-07T00:06:10;59330.80;;;13.68
68440;BMP180;55421;51.600;5.718;2023-08-07T00:08:37;15371.00;;;13.70
68440;BMP180;55421;51.600;5.718;2023-08-07T00:11:08;16325.60;;;13.70
68440;BMP180;55421;51.600;5.718;2023-08-07T00:13:35;16444.00;;;13.70
68440;BMP180;55421;51.600;5.718;2023-08-07T00:16:02;19940.20;;;13.70
68440;BMP180;55421;51.600;5.718;2023-08-07T00:18:29;20568.00;;;13.70
68440;BMP180;55421;51.600;5.718;2023-08-07T00:20:56;24717.20;;;13.70
68440;BMP180;55421;51.600;5.718;2023-08-07T00:23:23;28686.60;;;13.70
68440;BMP180;55421;51.600;5.718;2023-08-07T00:25:49;31861.20;;;13.70
68440;BMP180;55421;51.600;5.718;2023-08-07T00:28:15;35222.80;;;13.68
68440;BMP180;55421;51.600;5.718;2023-08-07T00:30:42;36695.60;;;13.68
68440;BMP180;55421;51.600;5.718;2023-08-07T00:33:09;38233.60;;;13.70
68440;BMP180;55421;51.600;5.718;2023-08-07T00:35:35;38421.00;;;13.70
68440;BMP180;55421;51.600;5.718;2023-08-07T00:38:02;44295.40;;;13.70
68440;BMP180;55421;51.600;5.718;2023-08-07T00:40:37;45505.40;;;13.70
68440;BMP180;55421;51.600;5.718;2023-08-07T00:43:04;48167.20;;;13.70
68440;BMP180;55421;51.600;5.718;2023-08-07T00:45:38;52740.20;;;13.70
68440;BMP180;55421;51.600;5.718;2023-08-07T00:48:05;53266.20;;;13.70
68440;BMP180;55421;51.600;5.718;2023-08-07T00:50:32;50323.00;;;13.70
68440;BMP180;55421;51.600;5.718;2023-08-07T00:53:00;50355.40;;;13.70
68440;BMP180;55421;51.600;5.718;2023-08-07T00:55:28;50725.80;;;13.70
68440;BMP180;55421;51.600;5.718;2023-08-07T00:57:54;50131.60;;;13.70
68440;BMP180;55421;51.600;5.718;2023-08-07T01:00:21;53464.80;;;13.70
68440;BMP180;55421;51.600;5.718;2023-08-07T01:02:49;49873.80;;;13.70
68440;BMP180;55421;51.600;5.718;2023-08-07T01:05:17;51170.40;;;13.70
68440;BMP180;55421;51.600;5.718;2023-08-07T01:07:47;56784.60;;;13.70
68440;BMP180;55421;51.600;5.718;2023-08-07T01:10:14;60489.80;;;13.70
68440;BMP180;55421;51.600;5.718;2023-08-07T01:13:10;60147.80;;;13.70
68440;BMP180;55421;51.600;5.718;2023-08-07T01:15:40;55491.60;;;13.70
68440;BMP180;55421;51.600;5.718;2023-08-07T01:18:07;58519.00;;;13.70
68440;BMP180;55421;51.600;5.718;2023-08-07T01:20:34;57485.80;;;13.70
68440;BMP180;55421;51.600;5.718;2023-08-07T01:23:00;55797.80;;;13.70
68440;BMP180;55421;51.600;5.718;2023-08-07T01:25:27;54255.60;;;13.68
68440;BMP180;55421;51.600;5.718;2023-08-07T01:28:08;49564.00;;;13.66
68440;BMP180;55421;51.600;5.718;2023-08-07T01:30:43;52167.40;;;13.64
68440;BMP180;55421;51.600;5.718;2023-08-07T01:35:53;58902.00;;;13.60
68440;BMP180;55421;51.600;5.718;2023-08-07T01:38:25;61728.00;;;13.60
68440;BMP180;55421;51.600;5.718;2023-08-07T01:40:53;67797.00;;;13.60
68440;BMP180;55421;51.600;5.718;2023-08-07T01:43:20;75510.60;;;13.60
68440;BMP180;55421;51.600;5.718;2023-08-07T01:45:47;83917.60;;;13.60
68440;BMP180;55421;51.600;5.718;2023-08-07T01:48:13;86254.80;;;13.68
68440;BMP180;55421;51.600;5.718;2023-08-07T01:50:40;91266.60;;;13.70
68440;BMP180;55421;51.600;5.718;2023-08-07T01:53:06;94333.60;;;13.70
68440;BMP180;55421;51.600;5.718;2023-08-07T01:55:33;93114.80;;;13.70
68440;BMP180;55421;51.600;5.718;2023-08-07T01:57:59;89988.40;;;13.70
68440;BMP180;55421;51.600;5.718;2023-08-07T02:00:26;92484.40;;;13.70
68440;BMP180;55421;51.600;5.718;2023-08-07T02:02:52;91231.00;;;13.70
68440;BMP180;55421;51.600;5.718;2023-08-07T02:05:19;89032.20;;;13.70
68440;BMP180;55421;51.600;5.718;2023-08-07T02:07:45;89370.20;;;13.70
68440;BMP180;55421;51.600;5.718;2023-08-07T02:10:12;88495.40;;;13.70
68440;BMP180;55421;51.600;5.718;2023-08-07T02:12:38;89064.60;;;13.70
68440;BMP180;55421;51.600;5.718;2023-08-07T02:15:06;86026.40;;;13.70
68440;BMP180;55421;51.600;5.718;2023-08-07T02:17:33;86513.00;;;13.70
68440;BMP180;55421;51.600;5.718;2023-08-07T02:20:00;90783.40;;;13.70
68440;BMP180;55421;51.600;5.718;2023-08-07T02:22:26;84714.00;;;13.68
68440;BMP180;55421;51.600;5.718;2023-08-07T02:24:53;82058.20;;;13.60
68440;BMP180;55421;51.600;5.718;2023-08-07T02:27:19;73127.40;;;13.60
68440;BMP180;55421;51.600;5.718;2023-08-07T02:29:45;70513.80;;;13.60
68440;BMP180;55421;51.600;5.718;2023-08-07T02:32:12;62654.00;;;13.60
68440;BMP180;55421;51.600;5.718;2023-08-07T02:34:38;64618.00;;;13.60
68440;BMP180;55421;51.600;5.718;2023-08-07T02:37:05;61626.80;;;13.60
68440;BMP180;55421;51.600;5.718;2023-08-07T02:39:31;65557.60;;;13.60
68440;BMP180;55421;51.600;5.718;2023-08-07T02:41:58;70572.60;;;13.58
68440;BMP180;55421;51.600;5.718;2023-08-07T02:44:24;67225.80;;;13.56
68440;BMP180;55421;51.600;5.718;2023-08-07T02:46:50;70456.40;;;13.50
68440;BMP180;55421;51.600;5.718;2023-08-07T02:49:17;69854.80;;;13.50
68440;BMP180;55421;51.600;5.718;2023-08-07T02:51:43;66552.00;;;13.50
68440;BMP180;55421;51.600;5.718;2023-08-07T02:54:10;64070.60;;;13.50
68440;BMP180;55421;51.600;5.718;2023-08-07T02:56:36;67620.80;;;13.50
68440;BMP180;55421;51.600;5.718;2023-08-07T02:59:03;67077.60;;;13.50
68440;BMP180;55421;51.600;5.718;2023-08-07T03:01:29;70599.40;;;13.52
68440;BMP180;55421;51.600;5.718;2023-08-07T03:03:56;74394.40;;;13.58
68440;BMP180;55421;51.600;5.718;2023-08-07T03:06:23;78505.40;;;13.56
68440;BMP180;55421;51.600;5.718;2023-08-07T03:08:50;78210.00;;;13.60
68440;BMP180;55421;51.600;5.718;2023-08-07T03:11:16;80859.60;;;13.60
68440;BMP180;55421;51.600;5.718;2023-08-07T03:13:43;83205.20;;;13.58
68440;BMP180;55421;51.600;5.718;2023-08-07T03:16:10;89036.40;;;13.60
68440;BMP180;55421;51.600;5.718;2023-08-07T03:18:37;92859.40;;;13.60
68440;BMP180;55421;51.600;5.718;2023-08-07T03:21:03;97289.20;;;13.60
68440;BMP180;55421;51.600;5.718;2023-08-07T03:23:30;104554.00;;;13.60
68440;BMP180;55421;51.600;5.718;2023-08-07T03:26:08;108521.40;;;13.56
68440;BMP180;55421;51.600;5.718;2023-08-07T03:28:36;109579.80;;;13.60
68440;BMP180;55421;51.600;5.718;2023-08-07T03:31:03;109403.40;;;13.60
68440;BMP180;55421;51.600;5.718;2023-08-07T03:33:30;115018.20;;;13.60
68440;BMP180;55421;51.600;5.718;2023-08-07T03:35:56;113393.20;;;13.60
68440;BMP180;55421;51.600;5.718;2023-08-07T03:38:23;117559.40;;;13.60
68440;BMP180;55421;51.600;5.718;2023-08-07T03:40:49;119225.40;;;13.60
68440;BMP180;55421;51.600;5.718;2023-08-07T03:43:16;122567.60;;;13.60
68440;BMP180;55421;51.600;5.718;2023-08-07T03:45:42;122368.80;;;13.60
68440;BMP180;55421;51.600;5.718;2023-08-07T03:48:09;121900.00;;;13.60
68440;BMP180;55421;51.600;5.718;2023-08-07T03:50:35;121632.60;;;13.60
68440;BMP180;55421;51.600;5.718;2023-08-07T03:53:06;122650.00;;;13.60
68440;BMP180;55421;51.600;5.718;2023-08-07T03:55:34;124239.00;;;13.60
68440;BMP180;55421;51.600;5.718;2023-08-07T03:58:02;124274.00;;;13.60
68440;BMP180;55421;51.600;5.718;2023-08-07T04:00:29;123868.40;;;13.60
68440;BMP180;55421;51.600;5.718;2023-08-07T04:02:56;123764.40;;;13.60
68440;BMP180;55421;51.600;5.718;2023-08-07T04:05:22;124014.60;;;13.60
68440;BMP180;55421;51.600;5.718;2023-08-07T04:07:49;123240.80;;;13.60
68440;BMP180;55421;51.600;5.718;2023-08-07T04:10:15;123720.20;;;13.60
68440;BMP180;55421;51.600;5.718;2023-08-07T04:12:42;125772.00;;;13.62
68440;BMP180;55421;51.600;5.718;2023-08-07T04:15:09;126232.40;;;13.60
68440;BMP180;55421;51.600;5.718;2023-08-07T04:17:36;125499.20;;;13.64
68440;BMP180;55421;51.600;5.718;2023-08-07T04:20:03;124781.20;;;13.62
68440;BMP180;55421;51.600;5.718;2023-08-07T04:22:30;123832.20;;;13.66
68440;BMP180;55421;51.600;5.718;2023-08-07T04:24:57;123085.40;;;13.70
68440;BMP180;55421;51.600;5.718;2023-08-07T04:27:23;122539.40;;;13.70
68440;BMP180;55421;51.600;5.718;2023-08-07T04:29:50;122519.80;;;13.70
68440;BMP180;55421;51.600;5.718;2023-08-07T04:32:16;123162.20;;;13.70
68440;BMP180;55421;51.600;5.718;2023-08-07T04:34:43;121557.80;;;13.70
68440;BMP180;55421;51.600;5.718;2023-08-07T04:37:09;120497.60;;;13.70
68440;BMP180;55421;51.600;5.718;2023-08-07T04:39:36;118765.00;;;13.70
68440;BMP180;55421;51.600;5.718;2023-08-07T04:42:03;118233.40;;;13.70
68440;BMP180;55421;51.600;5.718;2023-08-07T04:44:30;119436.80;;;13.70
68440;BMP180;55421;51.600;5.718;2023-08-07T04:46:56;118146.00;;;13.72
68440;BMP180;55421;51.600;5.718;2023-08-07T04:49:23;117550.80;;;13.80
68440;BMP180;55421;51.600;5.718;2023-08-07T04:51:49;117059.80;;;13.80
68440;BMP180;55421;51.600;5.718;2023-08-07T04:54:16;115994.40;;;13.80
68440;BMP180;55421;51.600;5.718;2023-08-07T04:56:42;116088.40;;;13.80
68440;BMP180;55421;51.600;5.718;2023-08-07T04:59:11;114250.00;;;13.80
68440;BMP180;55421;51.600;5.718;2023-08-07T05:01:37;112578.40;;;13.80
68440;BMP180;55421;51.600;5.718;2023-08-07T05:04:05;107223.60;;;13.80
68440;BMP180;55421;51.600;5.718;2023-08-07T05:06:31;101806.20;;;13.80
68440;BMP180;55421;51.600;5.718;2023-08-07T05:08:58;95153.20;;;13.80
68440;BMP180;55421;51.600;5.718;2023-08-07T05:11:24;85681.20;;;13.70
68440;BMP180;55421;51.600;5.718;2023-08-07T05:13:51;85550.80;;;13.70
68440;BMP180;55421;51.600;5.718;2023-08-07T05:16:17;83330.40;;;13.70
68440;BMP180;55421;51.600;5.718;2023-08-07T05:18:45;81785.00;;;13.70
68440;BMP180;55421;51.600;5.718;2023-08-07T05:21:11;78281.20;;;13.70
68440;BMP180;55421;51.600;5.718;2023-08-07T05:23:38;71026.40;;;13.70
68440;BMP180;55421;51.600;5.718;2023-08-07T05:26:04;67232.40;;;13.70
68440;BMP180;55421;51.600;5.718;2023-08-07T05:28:31;66935.40;;;13.70
68440;BMP180;55421;51.600;5.718;2023-08-07T05:30:57;70957.00;;;13.70
68440;BMP180;55421;51.600;5.718;2023-08-07T05:33:24;72340.40;;;13.70
68440;BMP180;55421;51.600;5.718;2023-08-07T05:35:50;71396.80;;;13.70
68440;BMP180;55421;51.600;5.718;2023-08-07T05:38:18;70894.40;;;13.70
68440;BMP180;55421;51.600;5.718;2023-08-07T05:40:45;66835.20;;;13.70
68440;BMP180;55421;51.600;5.718;2023-08-07T05:43:11;65630.40;;;13.70
68440;BMP180;55421;51.600;5.718;2023-08-07T05:45:39;58325.20;;;13.72
68440;BMP180;55421;51.600;5.718;2023-08-07T05:48:06;58292.80;;;13.72
68440;BMP180;55421;51.600;5.718;2023-08-07T05:50:33;57968.40;;;13.74
68440;BMP180;55421;51.600;5.718;2023-08-07T05:52:59;61134.00;;;13.80
68440;BMP180;55421;51.600;5.718;2023-08-07T05:55:25;61539.60;;;13.80
68440;BMP180;55421;51.600;5.718;2023-08-07T05:57:52;63584.40;;;13.80
68440;BMP180;55421;51.600;5.718;2023-08-07T06:00:18;62861.40;;;13.80
68440;BMP180;55421;51.600;5.718;2023-08-07T06:02:46;61530.40;;;13.80
68440;BMP180;55421;51.600;5.718;2023-08-07T06:05:12;60419.40;;;13.80
68440;BMP180;55421;51.600;5.718;2023-08-07T06:07:40;64329.80;;;13.80
68440;BMP180;55421;51.600;5.718;2023-08-07T06:10:07;59643.80;;;13.86
68440;BMP180;55421;51.600;5.718;2023-08-07T06:12:34;73441.40;;;13.86
68440;BMP180;55421;51.600;5.718;2023-08-07T06:15:00;67615.60;;;13.90
68440;BMP180;55421;51.600;5.718;2023-08-07T06:17:27;73074.40;;;13.90
68440;BMP180;55421;51.600;5.718;2023-08-07T06:19:53;84764.60;;;13.90
68440;BMP180;55421;51.600;5.718;2023-08-07T06:22:20;90735.80;;;13.90
68440;BMP180;55421;51.600;5.718;2023-08-07T06:24:46;94458.60;;;13.90
68440;BMP180;55421;51.600;5.718;2023-08-07T06:27:13;99207.60;;;13.90
68440;BMP180;55421;51.600;5.718;2023-08-07T06:29:39;98949.60;;;13.92
68440;BMP180;55421;51.600;5.718;2023-08-07T06:32:06;96283.40;;;14.00
68440;BMP180;55421;51.600;5.718;2023-08-07T06:34:35;101799.00;;;14.00
68440;BMP180;55421;51.600;5.718;2023-08-07T06:37:01;98189.20;;;14.00
68440;BMP180;55421;51.600;5.718;2023-08-07T06:39:28;104584.60;;;14.02
68440;BMP180;55421;51.600;5.718;2023-08-07T06:41:55;106357.00;;;14.10
68440;BMP180;55421;51.600;5.718;2023-08-07T06:44:22;107362.20;;;14.10
68440;BMP180;55421;51.600;5.718;2023-08-07T06:46:49;114672.80;;;14.10
68440;BMP180;55421;51.600;5.718;2023-08-07T06:49:15;117202.80;;;14.20
68440;BMP180;55421;51.600;5.718;2023-08-07T06:51:41;121858.80;;;14.20
68440;BMP180;55421;51.600;5.718;2023-08-07T06:54:08;124481.60;;;14.26
68440;BMP180;55421;51.600;5.718;2023-08-07T06:56:34;127329.20;;;14.30
68440;BMP180;55421;51.600;5.718;2023-08-07T06:59:01;130525.40;;;14.32
68440;BMP180;55421;51.600;5.718;2023-08-07T07:01:28;131204.80;;;14.40
68440;BMP180;55421;51.600;5.718;2023-08-07T07:03:55;130760.00;;;14.40
68440;BMP180;55421;51.600;5.718;2023-08-07T07:06:21;131646.20;;;14.40
68440;BMP180;55421;51.600;5.718;2023-08-07T07:08:52;133254.59;;;14.50
68440;BMP180;55421;51.600;5.718;2023-08-07T07:11:22;134724.20;;;14.50
68440;BMP180;55421;51.600;5.718;2023-08-07T07:13:51;133900.20;;;14.50
68440;BMP180;55421;51.600;5.718;2023-08-07T07:16:18;134431.80;;;14.50
68440;BMP180;55421;51.600;5.718;2023-08-07T07:18:49;136212.20;;;14.54
68440;BMP180;55421;51.600;5.718;2023-08-07T07:21:16;136457.00;;;14.60
68440;BMP180;55421;51.600;5.718;2023-08-07T07:23:42;135460.20;;;14.68
68440;BMP180;55421;51.600;5.718;2023-08-07T07:26:09;137814.41;;;14.70
68440;BMP180;55421;51.600;5.718;2023-08-07T07:28:35;138034.00;;;14.80
68440;BMP180;55421;51.600;5.718;2023-08-07T07:31:02;138203.80;;;14.90
68440;BMP180;55421;51.600;5.718;2023-08-07T07:33:30;136746.00;;;14.90
68440;BMP180;55421;51.600;5.718;2023-08-07T07:35:57;137327.20;;;14.94
68440;BMP180;55421;51.600;5.718;2023-08-07T07:38:23;136887.00;;;14.90
68440;BMP180;55421;51.600;5.718;2023-08-07T07:40:50;134664.80;;;14.90
68440;BMP180;55421;51.600;5.718;2023-08-07T07:43:16;133699.59;;;14.90
68440;BMP180;55421;51.600;5.718;2023-08-07T07:45:43;132532.59;;;14.90
68440;BMP180;55421;51.600;5.718;2023-08-07T07:48:10;134717.41;;;15.00
68440;BMP180;55421;51.600;5.718;2023-08-07T07:50:37;134830.59;;;15.12
68440;BMP180;55421;51.600;5.718;2023-08-07T07:53:03;136038.00;;;15.30
68440;BMP180;55421;51.600;5.718;2023-08-07T07:55:30;135885.80;;;15.44
68440;BMP180;55421;51.600;5.718;2023-08-07T07:57:56;135085.00;;;15.50
68440;BMP180;55421;51.600;5.718;2023-08-07T08:00:23;135458.20;;;15.50
68440;BMP180;55421;51.600;5.718;2023-08-07T08:02:53;135687.00;;;15.60
68440;BMP180;55421;51.600;5.718;2023-08-07T08:05:20;135615.20;;;15.70
68440;BMP180;55421;51.600;5.718;2023-08-07T08:07:47;136663.20;;;15.98
68440;BMP180;55421;51.600;5.718;2023-08-07T08:10:13;137917.00;;;16.14
68440;BMP180;55421;51.600;5.718;2023-08-07T08:12:40;136873.41;;;16.20
68440;BMP180;55421;51.600;5.718;2023-08-07T08:15:07;135832.59;;;16.14
68440;BMP180;55421;51.600;5.718;2023-08-07T08:17:33;134733.20;;;16.10
68440;BMP180;55421;51.600;5.718;2023-08-07T08:20:00;133676.41;;;16.00
68440;BMP180;55421;51.600;5.718;2023-08-07T08:22:26;134961.80;;;16.00
68440;BMP180;55421;51.600;5.718;2023-08-07T08:24:53;135427.80;;;16.08
68440;BMP180;55421;51.600;5.718;2023-08-07T08:27:19;135200.00;;;16.10
68440;BMP180;55421;51.600;5.718;2023-08-07T08:29:47;133949.59;;;16.22
68440;BMP180;55421;51.600;5.718;2023-08-07T08:32:13;134769.00;;;16.42
68440;BMP180;55421;51.600;5.718;2023-08-07T08:34:40;133857.00;;;16.60
68440;BMP180;55421;51.600;5.718;2023-08-07T08:37:06;133033.59;;;16.66
68440;BMP180;55421;51.600;5.718;2023-08-07T08:39:34;129412.40;;;16.76
68440;BMP180;55421;51.600;5.718;2023-08-07T08:42:00;128248.20;;;16.86
68440;BMP180;55421;51.600;5.718;2023-08-07T08:44:29;125910.60;;;16.90
68440;BMP180;55421;51.600;5.718;2023-08-07T08:46:59;126197.80;;;17.06
68440;BMP180;55421;51.600;5.718;2023-08-07T08:49:35;124248.40;;;17.20
68440;BMP180;55421;51.600;5.718;2023-08-07T08:52:04;123428.40;;;17.32
68440;BMP180;55421;51.600;5.718;2023-08-07T08:54:32;118219.20;;;17.42
68440;BMP180;55421;51.600;5.718;2023-08-07T08:56:59;118620.20;;;17.60
68440;BMP180;55421;51.600;5.718;2023-08-07T08:59:26;117417.80;;;17.70
68440;BMP180;55421;51.600;5.718;2023-08-07T09:01:53;111918.40;;;17.70
68440;BMP180;55421;51.600;5.718;2023-08-07T09:04:19;117024.60;;;17.88
68440;BMP180;55421;51.600;5.718;2023-08-07T09:06:46;111874.40;;;18.00
68440;BMP180;55421;51.600;5.718;2023-08-07T09:09:16;109963.60;;;18.10
68440;BMP180;55421;51.600;5.718;2023-08-07T09:11:45;108059.00;;;18.20
68440;BMP180;55421;51.600;5.718;2023-08-07T09:14:16;102713.80;;;18.30
68440;BMP180;55421;51.600;5.718;2023-08-07T09:16:48;99664.80;;;18.38
68440;BMP180;55421;51.600;5.718;2023-08-07T09:19:15;88359.00;;;18.40
68440;BMP180;55421;51.600;5.718;2023-08-07T09:21:41;73797.20;;;18.30
68440;BMP180;55421;51.600;5.718;2023-08-07T09:24:08;69057.60;;;18.40
68440;BMP180;55421;51.600;5.718;2023-08-07T09:26:35;62071.60;;;18.40
68440;BMP180;55421;51.600;5.718;2023-08-07T09:29:02;48386.40;;;18.50
68440;BMP180;55421;51.600;5.718;2023-08-07T09:31:29;33649.80;;;18.60
68440;BMP180;55421;51.600;5.718;2023-08-07T09:34:04;33864.20;;;18.70
68440;BMP180;55421;51.600;5.718;2023-08-07T09:36:31;37001.20;;;18.94
68440;BMP180;55421;51.600;5.718;2023-08-07T09:39:01;58123.20;;;19.10
68440;BMP180;55421;51.600;5.718;2023-08-07T09:41:31;148545.41;;;19.00
68440;BMP180;55421;51.600;5.718;2023-08-07T09:43:58;234863.80;;;18.90
68440;BMP180;55421;51.600;5.718;2023-08-07T09:46:27;232796.80;;;18.90
68440;BMP180;55421;51.600;5.718;2023-08-07T09:48:57;228276.00;;;18.70
68440;BMP180;55421;51.600;5.718;2023-08-07T09:51:25;226521.59;;;18.70
68440;BMP180;55421;51.600;5.718;2023-08-07T09:53:51;225759.59;;;18.80
68440;BMP180;55421;51.600;5.718;2023-08-07T09:56:18;225416.41;;;18.90
68440;BMP180;55421;51.600;5.718;2023-08-07T09:58:47;225299.00;;;19.00
68440;BMP180;55421;51.600;5.718;2023-08-07T10:01:16;225125.41;;;19.00
68440;BMP180;55421;51.600;5.718;2023-08-07T10:03:43;225169.00;;;19.10
68440;BMP180;55421;51.600;5.718;2023-08-07T10:06:09;225194.00;;;19.10
68440;BMP180;55421;51.600;5.718;2023-08-07T10:08:37;225213.80;;;19.20
68440;BMP180;55421;51.600;5.718;2023-08-07T10:11:05;225254.59;;;19.24
68440;BMP180;55421;51.600;5.718;2023-08-07T10:13:32;225187.20;;;19.10
68440;BMP180;55421;51.600;5.718;2023-08-07T10:15:58;225155.80;;;19.08
68440;BMP180;55421;51.600;5.718;2023-08-07T10:18:25;225185.80;;;19.10
68440;BMP180;55421;51.600;5.718;2023-08-07T10:20:52;225161.59;;;19.10
68440;BMP180;55421;51.600;5.718;2023-08-07T10:23:20;225208.59;;;19.18
68440;BMP180;55421;51.600;5.718;2023-08-07T10:25:49;225271.00;;;19.28
68440;BMP180;55421;51.600;5.718;2023-08-07T10:28:19;225384.00;;;19.50
68440;BMP180;55421;51.600;5.718;2023-08-07T10:30:46;225433.59;;;19.60
68440;BMP180;55421;51.600;5.718;2023-08-07T10:33:13;225516.41;;;19.70
68440;BMP180;55421;51.600;5.718;2023-08-07T10:35:48;225569.20;;;19.80
68440;BMP180;55421;51.600;5.718;2023-08-07T10:38:20;225533.59;;;19.70
68440;BMP180;55421;51.600;5.718;2023-08-07T10:41:14;225509.00;;;19.70
68440;BMP180;55421;51.600;5.718;2023-08-07T10:43:45;225470.20;;;19.60
68440;BMP180;55421;51.600;5.718;2023-08-07T10:46:15;225492.59;;;19.68
68440;BMP180;55421;51.600;5.718;2023-08-07T10:48:46;225620.41;;;19.90
68440;BMP180;55421;51.600;5.718;2023-08-07T10:51:17;225534.41;;;19.70
68440;BMP180;55421;51.600;5.718;2023-08-07T10:53:49;225459.41;;;19.60
68440;BMP180;55421;51.600;5.718;2023-08-07T10:56:31;225450.59;;;19.60
68440;BMP180;55421;51.600;5.718;2023-08-07T10:58:58;225432.00;;;19.58
68440;BMP180;55421;51.600;5.718;2023-08-07T11:04:06;225404.41;;;19.50
68440;BMP180;55421;51.600;5.718;2023-08-07T11:06:35;225366.80;;;19.40
68440;BMP180;55421;51.600;5.718;2023-08-07T11:09:06;225296.59;;;19.30
68440;BMP180;55421;51.600;5.718;2023-08-07T11:11:47;225371.59;;;19.44
68440;BMP180;55421;51.600;5.718;2023-08-07T11:14:19;225460.41;;;19.60
68440;BMP180;55421;51.600;5.718;2023-08-07T11:16:47;225569.20;;;19.80
68440;BMP180;55421;51.600;5.718;2023-08-07T11:19:17;225695.80;;;20.00
68440;BMP180;55421;51.600;5.718;2023-08-07T11:21:44;225714.00;;;20.08
68440;BMP180;55421;51.600;5.718;2023-08-07T11:24:13;225737.20;;;20.10
68440;BMP180;55421;51.600;5.718;2023-08-07T11:26:43;225686.20;;;20.00
68440;BMP180;55421;51.600;5.718;2023-08-07T11:29:10;225678.20;;;20.00
68440;BMP180;55421;51.600;5.718;2023-08-07T11:31:36;225772.00;;;20.12
68440;BMP180;55421;51.600;5.718;2023-08-07T11:34:03;225831.41;;;20.30
68440;BMP180;55421;51.600;5.718;2023-08-07T11:36:30;225885.41;;;20.38
68440;BMP180;55421;51.600;5.718;2023-08-07T11:38:57;225837.80;;;20.30
68440;BMP180;55421;51.600;5.718;2023-08-07T11:41:24;225821.00;;;20.20
68440;BMP180;55421;51.600;5.718;2023-08-07T11:43:50;225898.20;;;20.40
68440;BMP180;55421;51.600;5.718;2023-08-07T11:46:17;226023.41;;;20.60
68440;BMP180;55421;51.600;5.718;2023-08-07T11:48:44;226099.41;;;20.72
68440;BMP180;55421;51.600;5.718;2023-08-07T11:51:11;226045.41;;;20.62
68440;BMP180;55421;51.600;5.718;2023-08-07T11:53:40;226005.41;;;20.60
68440;BMP180;55421;51.600;5.718;2023-08-07T11:56:11;225964.41;;;20.50
68440;BMP180;55421;51.600;5.718;2023-08-07T11:58:43;225977.20;;;20.50
68440;BMP180;55421;51.600;5.718;2023-08-07T12:01:17;226063.00;;;20.70
68440;BMP180;55421;51.600;5.718;2023-08-07T12:06:24;226248.20;;;21.00
68440;BMP180;55421;51.600;5.718;2023-08-07T12:08:55;226291.00;;;21.10
68440;BMP180;55421;51.600;5.718;2023-08-07T12:11:22;226378.80;;;21.20
68440;BMP180;55421;51.600;5.718;2023-08-07T12:13:49;226363.20;;;21.20
68440;BMP180;55421;51.600;5.718;2023-08-07T12:16:17;226320.00;;;21.10
68440;BMP180;55421;51.600;5.718;2023-08-07T12:18:50;226299.00;;;21.10
68440;BMP180;55421;51.600;5.718;2023-08-07T12:21:20;226335.20;;;21.14
68440;BMP180;55421;51.600;5.718;2023-08-07T12:23:49;226384.80;;;21.24
68440;BMP180;55421;51.600;5.718;2023-08-07T12:26:17;226360.00;;;21.20
68440;BMP180;55421;51.600;5.718;2023-08-07T12:28:43;226343.59;;;21.20
68440;BMP180;55421;51.600;5.718;2023-08-07T12:31:10;226323.59;;;21.10
68440;BMP180;55421;51.600;5.718;2023-08-07T12:33:37;226295.59;;;21.10
68440;BMP180;55421;51.600;5.718;2023-08-07T12:36:03;226268.59;;;21.00
68440;BMP180;55421;51.600;5.718;2023-08-07T12:38:30;226253.80;;;21.00
68440;BMP180;55421;51.600;5.718;2023-08-07T12:40:57;226243.41;;;21.00
68440;BMP180;55421;51.600;5.718;2023-08-07T12:43:23;226212.80;;;20.90
68440;BMP180;55421;51.600;5.718;2023-08-07T12:45:50;226182.80;;;20.90
68440;BMP180;55421;51.600;5.718;2023-08-07T12:48:17;226124.00;;;20.80
68440;BMP180;55421;51.600;5.718;2023-08-07T12:50:45;226013.00;;;20.60
68440;BMP180;55421;51.600;5.718;2023-08-07T12:53:12;225941.00;;;20.44
68440;BMP180;55421;51.600;5.718;2023-08-07T12:55:38;225947.41;;;20.50
68440;BMP180;55421;51.600;5.718;2023-08-07T12:58:05;225909.41;;;20.40
68440;BMP180;55421;51.600;5.718;2023-08-07T13:00:31;225891.80;;;20.40
68440;BMP180;55421;51.600;5.718;2023-08-07T13:02:58;225907.80;;;20.40
68440;BMP180;55421;51.600;5.718;2023-08-07T13:05:28;225887.00;;;20.38
68440;BMP180;55421;51.600;5.718;2023-08-07T13:07:58;225880.59;;;20.34
68440;BMP180;55421;51.600;5.718;2023-08-07T13:10:25;225877.41;;;20.30
68440;BMP180;55421;51.600;5.718;2023-08-07T13:12:54;225879.00;;;20.30
68440;BMP180;55421;51.600;5.718;2023-08-07T13:15:21;225859.00;;;20.30
68440;BMP180;55421;51.600;5.718;2023-08-07T13:17:47;225873.00;;;20.30
68440;BMP180;55421;51.600;5.718;2023-08-07T13:20:14;225890.20;;;20.38
68440;BMP180;55421;51.600;5.718;2023-08-07T13:22:42;225922.20;;;20.40
68440;BMP180;55421;51.600;5.718;2023-08-07T13:25:11;225944.20;;;20.50
68440;BMP180;55421;51.600;5.718;2023-08-07T13:27:39;225971.20;;;20.50
68440;BMP180;55421;51.600;5.718;2023-08-07T13:30:07;225917.41;;;20.40
68440;BMP180;55421;51.600;5.718;2023-08-07T13:32:36;225859.80;;;20.30
68440;BMP180;55421;51.600;5.718;2023-08-07T13:35:03;225831.41;;;20.26
68440;BMP180;55421;51.600;5.718;2023-08-07T13:37:31;225827.20;;;20.26
68440;BMP180;55421;51.600;5.718;2023-08-07T13:39:58;225812.80;;;20.20
68440;BMP180;55421;51.600;5.718;2023-08-07T13:42:25;225820.20;;;20.20
68440;BMP180;55421;51.600;5.718;2023-08-07T13:44:52;225859.00;;;20.30
68440;BMP180;55421;51.600;5.718;2023-08-07T13:47:19;225903.00;;;20.40
68440;BMP180;55421;51.600;5.718;2023-08-07T13:49:46;225903.00;;;20.40
68440;BMP180;55421;51.600;5.718;2023-08-07T13:52:13;225898.20;;;20.40
68440;BMP180;55421;51.600;5.718;2023-08-07T13:54:40;225869.00;;;20.30
68440;BMP180;55421;51.600;5.718;2023-08-07T13:57:06;225843.80;;;20.30
68440;BMP180;55421;51.600;5.718;2023-08-07T13:59:33;225816.59;;;20.20
68440;BMP180;55421;51.600;5.718;2023-08-07T14:01:59;225764.41;;;20.10
68440;BMP180;55421;51.600;5.718;2023-08-07T14:04:26;225691.00;;;20.00
68440;BMP180;55421;51.600;5.718;2023-08-07T14:06:53;225631.20;;;19.90
68440;BMP180;55421;51.600;5.718;2023-08-07T14:09:19;225541.59;;;19.70
68440;BMP180;55421;51.600;5.718;2023-08-07T14:11:49;225425.59;;;19.52